Ignacio, CO (81137)

3:18 PM MST on February 05, 2016 (GMT -0700)
Rural Bayfield Area | | Change Station
CLOSE
Current Station
Personal Weather Station
Location: Bayfield, CO
Elevation: 6913 ft
Nearby Weather Stations

Elev 6913 ft 37.20 °N, 107.68 °W | Updated 12 minutes ago

Clear
Clear
30.0 °F
Feels Like 30 °F
N
0.0
Wind Variable Wind from South

Today
High -- | Low -- °F
--% Chance of Precip.
Yesterday
High -- | Low -- °F
Precip. -- in
Pressure 30.63 in
Visibility 10.0 miles
Clouds Clear
Windchill 30 °F
Dew Point 13 °F
Humidity 48%
Rainfall 0.00 in
Snow Depth Not available.
7:10 AM 5:39 PM
Waning Crescent, 9% visible
METAR KDRO 052153Z AUTO 05006KT 10SM CLR M04/M11 A3036 RMK AO2 SLP373 T10391111
Pressure 30.63 in
Visibility 10.0 miles
Clouds Clear
Windchill 30 °F
Dew Point 13 °F
Humidity 48%
Rainfall 0.00 in
Snow Depth Not available.
7:10 AM 5:39 PM
Waning Crescent, 9% visible
METAR KDRO 052153Z AUTO 05006KT 10SM CLR M04/M11 A3036 RMK AO2 SLP373 T10391111

10-Day Weather Forecast

Almanac

Astronomy

Feb. 05, 2016 Rise Set
Actual Time
Civil Twilight
Nautical Twilight
Astronomical Twilight
Moon
Length of Visible Light
Length of Day
Tomorrow will be .
, % of the Moon is Illuminated

Today's Extremes

State Highs State Lows

Community

WunderPhotos

Upload Photos

1,890,876 photos uploaded!

WunderBlog® & News

Nearby

Air Quality

  Air Quality AQ Index Pollutant
Not available.

Snow Depth

Station Depth Elevation

Earthquake Activity

City Distance Mag. Time & Date
Minimum magnitude displayed is 2.5.

Coastal Water Temperatures

Place Temperature

Stations

Nearby Weather Stations

Station Location Temp. Windchill Dew Point Humidity Wind Precip. Elev Updated Type
                   

Watches & Warnings

There are currently no watches in effect.